Time;durP1;ratioP1;P1;durP2;ratioP2;P2;SDS_P1;SDS_P2;PMS_P1;PMS_P2;Temp;Humidity;BMP_temperature;BMP_pressure;BME280_temperature;BME280_humidity;BME280_pressure;Samples;Min_cycle;Max_cycle;Signal;HPM_P1;HPM_P2
2023/01/18 00:01:17;;;;;;;12.00;6.73;;;;;;;-3.83;100.00;98258.41;5065999;28;20529;-73
2023/01/18 00:03:44;;;;;;;11.07;6.10;;;;;;;-3.87;100.00;98251.63;5082833;28;20754;-72
2023/01/18 00:06:12;;;;;;;13.33;7.37;;;;;;;-3.82;100.00;98250.75;5085224;28;20456;-72
2023/01/18 00:08:41;;;;;;;13.83;6.77;;;;;;;-3.89;100.00;98244.00;5069113;28;20846;-72
2023/01/18 00:11:11;;;;;;;8.20;5.63;;;;;;;-3.93;100.00;98249.13;5083776;28;20815;-71
2023/01/18 00:13:38;;;;;;;12.40;6.30;;;;;;;-3.96;100.00;98251.69;5073678;28;20507;-72
2023/01/18 00:16:06;;;;;;;11.80;5.73;;;;;;;-3.88;100.00;98255.88;5066381;28;20208;-72
2023/01/18 00:18:34;;;;;;;13.80;6.40;;;;;;;-3.79;100.00;98251.59;5089816;28;20202;-71
2023/01/18 00:21:01;;;;;;;11.67;6.30;;;;;;;-3.73;100.00;98257.50;5066923;28;20245;-72
2023/01/18 00:23:30;;;;;;;8.57;5.47;;;;;;;-3.81;100.00;98261.78;5082274;28;20482;-73
2023/01/18 00:25:59;;;;;;;8.80;5.70;;;;;;;-3.82;100.00;98263.50;5068095;28;20466;-72
2023/01/18 00:28:27;;;;;;;8.50;5.57;;;;;;;-3.69;100.00;98269.34;5068133;28;20201;-71
2023/01/18 00:30:54;;;;;;;9.07;5.47;;;;;;;-3.46;100.00;98273.44;5082635;28;20512;-72
2023/01/18 00:33:20;;;;;;;12.43;5.17;;;;;;;-3.36;100.00;98282.72;5073174;28;20533;-72
2023/01/18 00:35:55;;;;;;;10.23;6.57;;;;;;;-3.29;100.00;98296.22;5052544;28;20461;-73
2023/01/18 00:38:22;;;;;;;11.57;5.87;;;;;;;-3.23;100.00;98288.56;5051973;28;20244;-72
2023/01/18 00:40:48;;;;;;;16.23;6.17;;;;;;;-3.27;100.00;98280.09;5061892;28;20331;-72
2023/01/18 00:46:00;;;;;;;9.60;5.40;;;;;;;-3.19;100.00;98286.81;5069729;28;20206;-72
2023/01/18 00:48:27;;;;;;;9.90;6.17;;;;;;;-2.98;100.00;98283.25;5058989;28;20222;-73
2023/01/18 00:50:54;;;;;;;9.03;5.33;;;;;;;-2.92;100.00;98293.38;5084912;28;20705;-73
2023/01/18 00:53:20;;;;;;;9.40;5.47;;;;;;;-2.84;100.00;98278.03;5071268;28;20220;-72
2023/01/18 00:55:48;;;;;;;15.13;5.77;;;;;;;-2.89;100.00;98276.34;5069321;28;20210;-73
2023/01/18 00:58:14;;;;;;;9.80;5.27;;;;;;;-2.92;100.00;98280.63;5067415;28;20205;-73
2023/01/18 01:00:41;;;;;;;10.27;5.17;;;;;;;-2.93;100.00;98278.97;5067314;28;20225;-73
2023/01/18 01:03:09;;;;;;;7.43;5.00;;;;;;;-2.93;100.00;98271.31;5086564;28;20198;-74
2023/01/18 01:08:22;;;;;;;9.13;4.97;;;;;;;-2.84;100.00;98273.75;5061895;28;20277;-72
2023/01/18 01:10:50;;;;;;;11.50;5.60;;;;;;;-2.79;100.00;98272.00;5065706;28;20674;-73
2023/01/18 01:27:04;;;;;;;12.47;5.67;;;;;;;-2.75;100.00;98286.41;5068330;28;20655;-73
2023/01/18 01:29:30;;;;;;;12.80;5.27;;;;;;;-2.73;100.00;98288.97;5059389;28;20290;-73
2023/01/18 01:31:59;;;;;;;9.10;4.43;;;;;;;-2.67;100.00;98294.84;5085479;28;20202;-73
2023/01/18 01:34:28;;;;;;;7.30;4.97;;;;;;;-2.64;100.00;98299.06;5065943;28;20233;-73
2023/01/18 01:36:56;;;;;;;11.93;6.50;;;;;;;-2.62;100.00;98297.38;5067357;28;20198;-73
2023/01/18 01:39:23;;;;;;;15.20;6.17;;;;;;;-2.58;100.00;98293.91;5069726;28;20194;-72
2023/01/18 01:41:50;;;;;;;10.57;5.60;;;;;;;-2.54;100.00;98295.56;5068273;28;20199;-73
2023/01/18 01:44:53;;;;;;;13.67;6.77;;;;;;;-2.52;100.00;98296.38;5068369;28;20213;-73
2023/01/18 01:47:39;;;;;;;9.77;5.73;;;;;;;-2.48;100.00;98292.97;5056506;28;20228;-72
2023/01/18 01:50:18;;;;;;;10.57;5.67;;;;;;;-2.44;100.00;98300.59;5072731;28;20198;-73
2023/01/18 01:52:47;;;;;;;10.43;5.50;;;;;;;-2.42;100.00;98299.69;5067369;28;20206;-73
2023/01/18 01:55:21;;;;;;;11.93;6.53;;;;;;;-2.44;100.00;98295.47;5066085;28;20215;-73
2023/01/18 01:57:52;;;;;;;11.80;6.27;;;;;;;-2.42;100.00;98298.88;5067649;28;20209;-73
2023/01/18 02:00:21;;;;;;;12.27;7.20;;;;;;;-2.37;100.00;98303.03;5056385;28;20206;-73
2023/01/18 02:02:53;;;;;;;12.27;7.37;;;;;;;-2.33;100.00;98293.66;5064459;28;20217;-73
2023/01/18 02:05:21;;;;;;;15.60;7.07;;;;;;;-2.30;100.00;98301.28;5063698;28;20202;-73
2023/01/18 02:07:48;;;;;;;15.23;7.67;;;;;;;-2.28;100.00;98312.31;5089508;28;20415;-73
2023/01/18 02:10:15;;;;;;;13.27;7.00;;;;;;;-2.24;100.00;98311.41;5064079;28;20551;-74
2023/01/18 02:12:45;;;;;;;13.50;7.07;;;;;;;-2.22;100.00;98317.34;5072447;28;20202;-73
2023/01/18 02:15:12;;;;;;;17.43;7.27;;;;;;;-2.17;100.00;98324.94;5078193;28;20343;-73
2023/01/18 02:18:03;;;;;;;15.93;7.30;;;;;;;-2.16;100.00;98317.28;5072476;28;20232;-73
2023/01/18 02:20:55;;;;;;;16.67;8.17;;;;;;;-2.09;100.00;98320.59;5060586;28;20302;-73
2023/01/18 02:24:00;;;;;;;17.30;8.00;;;;;;;-2.10;100.00;98308.69;5064942;28;20213;-73
2023/01/18 02:26:53;;;;;;;14.30;7.03;;;;;;;-2.07;100.00;98318.88;5067336;28;20198;-73
2023/01/18 02:29:31;;;;;;;15.73;8.03;;;;;;;-2.06;100.00;98318.00;5074206;28;20708;-73
2023/01/18 02:32:09;;;;;;;13.13;7.20;;;;;;;-2.07;100.00;98321.44;5089955;28;20200;-74
2023/01/18 02:34:40;;;;;;;13.20;7.63;;;;;;;-2.05;100.00;98312.03;5064122;28;20225;-73
2023/01/18 02:37:16;;;;;;;12.40;6.97;;;;;;;-2.04;100.00;98312.88;5068768;28;20212;-73
2023/01/18 02:39:57;;;;;;;11.87;7.10;;;;;;;-2.03;100.00;98314.56;5090479;28;20192;-73
2023/01/18 02:48:04;;;;;;;12.43;6.40;;;;;;;-1.95;100.00;98315.34;5087242;28;20209;-73
2023/01/18 02:50:30;;;;;;;11.60;6.23;;;;;;;-1.96;100.00;98303.41;5065345;28;20221;-72
2023/01/18 02:52:57;;;;;;;10.77;5.60;;;;;;;-2.00;100.00;98299.22;5067193;28;20578;-74
2023/01/18 02:55:36;;;;;;;13.00;6.33;;;;;;;-2.01;100.00;98308.56;5067292;28;20201;-73
2023/01/18 02:58:09;;;;;;;12.27;6.57;;;;;;;-2.00;100.00;98309.44;5067643;28;20724;-73
2023/01/18 03:00:44;;;;;;;15.43;6.00;;;;;;;-1.99;100.00;98306.00;5074537;28;20236;-72
2023/01/18 03:03:12;;;;;;;9.90;6.17;;;;;;;-1.97;100.00;98302.59;5073999;28;20289;-73
2023/01/18 03:05:41;;;;;;;12.70;5.43;;;;;;;-1.94;100.00;98304.22;5070773;28;20272;-73
2023/01/18 03:08:14;;;;;;;10.87;5.50;;;;;;;-1.93;100.00;98301.66;5075786;28;20852;-72
2023/01/18 03:10:51;;;;;;;13.53;6.13;;;;;;;-1.90;100.00;98298.22;5069351;28;20198;-72
2023/01/18 03:13:28;;;;;;;14.83;6.43;;;;;;;-1.87;100.00;98297.34;5067761;28;20764;-73
2023/01/18 03:16:03;;;;;;;11.27;5.33;;;;;;;-1.87;100.00;98305.00;5068755;28;20554;-72
2023/01/18 03:18:38;;;;;;;17.53;6.00;;;;;;;-1.85;100.00;98301.56;5077034;28;20268;-73
2023/01/18 03:21:07;;;;;;;11.23;6.10;;;;;;;-1.83;100.00;98302.41;5094941;28;20314;-73
2023/01/18 03:23:38;;;;;;;11.43;6.00;;;;;;;-1.78;100.00;98297.22;5067842;28;20217;-73
2023/01/18 03:26:07;;;;;;;11.83;6.37;;;;;;;-1.78;100.00;98294.66;5077681;28;20213;-73
2023/01/18 03:34:22;;;;;;;20.60;6.20;;;;;;;-1.70;100.00;98284.34;5071770;28;20217;-73
2023/01/18 03:36:52;;;;;;;11.77;5.67;;;;;;;-1.69;100.00;98284.31;5066685;28;20205;-72
2023/01/18 03:39:27;;;;;;;11.83;5.53;;;;;;;-1.67;100.00;98281.72;5090542;28;20960;-73
2023/01/18 03:41:59;;;;;;;13.30;6.03;;;;;;;-1.65;100.00;98288.53;5079712;28;20236;-72
2023/01/18 03:44:33;;;;;;;13.40;5.70;;;;;;;-1.61;100.00;98286.78;5073126;28;20284;-73
2023/01/18 03:47:02;;;;;;;13.53;5.97;;;;;;;-1.60;100.00;98281.66;5071074;28;20292;-72
2023/01/18 03:49:29;;;;;;;9.83;5.80;;;;;;;-1.62;100.00;98283.38;5088288;28;20186;-73
2023/01/18 03:52:09;;;;;;;8.97;5.40;;;;;;;-1.61;100.00;98282.50;5062000;28;20230;-73
2023/01/18 03:54:43;;;;;;;11.10;5.63;;;;;;;-1.60;100.00;98279.09;5072099;28;20209;-73
2023/01/18 03:57:15;;;;;;;12.37;6.13;;;;;;;-1.59;100.00;98285.88;5065387;28;20237;-72
2023/01/18 03:59:42;;;;;;;12.20;6.27;;;;;;;-1.59;100.00;98283.31;5063781;28;20206;-73
2023/01/18 04:02:10;;;;;;;10.93;5.30;;;;;;;-1.57;100.00;98280.75;5082198;28;20328;-73
2023/01/18 04:04:37;;;;;;;12.37;5.67;;;;;;;-1.59;100.00;98280.75;5074630;28;20734;-73
2023/01/18 04:07:04;;;;;;;9.83;5.53;;;;;;;-1.54;100.00;98284.09;5070717;28;20566;-73
2023/01/18 04:09:30;;;;;;;10.10;5.50;;;;;;;-1.56;100.00;98295.22;5067501;28;20566;-73
2023/01/18 04:11:57;;;;;;;13.13;6.40;;;;;;;-1.53;100.00;98288.34;5067017;28;20289;-74
2023/01/18 04:14:24;;;;;;;10.87;5.77;;;;;;;-1.51;100.00;98293.44;5083232;28;20213;-72
2023/01/18 04:16:50;;;;;;;11.93;5.63;;;;;;;-1.48;100.00;98290.81;5065241;28;20236;-72
2023/01/18 04:19:18;;;;;;;13.93;6.93;;;;;;;-1.45;100.00;98293.34;5066365;28;20289;-73
2023/01/18 04:21:45;;;;;;;11.53;6.03;;;;;;;-1.45;100.00;98289.94;5064717;28;20218;-73
2023/01/18 04:24:12;;;;;;;14.60;7.07;;;;;;;-1.39;100.00;98288.16;5065814;28;20304;-73
2023/01/18 04:26:40;;;;;;;15.70;8.40;;;;;;;-1.41;100.00;98286.47;5082617;28;20673;-73
2023/01/18 04:29:07;;;;;;;13.50;7.57;;;;;;;-1.41;100.00;98289.84;5085579;28;20196;-73
2023/01/18 04:31:34;;;;;;;12.60;6.47;;;;;;;-1.49;100.00;98284.03;5085638;28;20212;-73
2023/01/18 04:34:01;;;;;;;15.10;6.37;;;;;;;-1.50;100.00;98286.63;5080300;28;20219;-73
2023/01/18 04:36:29;;;;;;;10.40;5.77;;;;;;;-1.50;100.00;98287.44;5064902;28;20293;-73
2023/01/18 04:38:56;;;;;;;11.13;5.20;;;;;;;-1.46;100.00;98281.44;5086257;28;20274;-73
2023/01/18 04:41:23;;;;;;;10.83;5.63;;;;;;;-1.41;100.00;98287.31;5086491;28;20686;-72
2023/01/18 04:43:49;;;;;;;13.17;6.30;;;;;;;-1.37;100.00;98278.75;5079992;28;20226;-74
2023/01/18 04:46:20;;;;;;;14.13;6.30;;;;;;;-1.39;100.00;98277.06;5063082;28;20691;-73
2023/01/18 04:48:50;;;;;;;10.30;5.40;;;;;;;-1.45;100.00;98283.13;5084986;28;20190;-73
2023/01/18 04:51:16;;;;;;;12.70;5.97;;;;;;;-1.46;100.00;98299.34;5067634;28;20344;-73
2023/01/18 04:53:45;;;;;;;12.90;6.80;;;;;;;-1.42;100.00;98297.56;5086884;28;20213;-73
2023/01/18 04:56:12;;;;;;;11.10;5.80;;;;;;;-1.37;100.00;98294.09;5073623;28;20391;-73
2023/01/18 04:58:38;;;;;;;15.17;5.93;;;;;;;-1.41;100.00;98294.13;5070383;28;20205;-73
2023/01/18 05:01:07;;;;;;;13.73;6.30;;;;;;;-1.39;100.00;98300.94;5068367;28;20233;-73
2023/01/18 05:03:36;;;;;;;11.57;6.60;;;;;;;-1.36;100.00;98297.47;5067603;28;20819;-73
2023/01/18 05:06:04;;;;;;;15.63;7.50;;;;;;;-1.33;100.00;98302.53;5066535;28;20612;-73
2023/01/18 05:08:31;;;;;;;10.87;6.67;;;;;;;-1.30;100.00;98301.63;5065053;28;20662;-73
2023/01/18 05:11:03;;;;;;;12.40;6.60;;;;;;;-1.34;100.00;98311.94;5066450;28;20631;-73
2023/01/18 05:13:29;;;;;;;12.87;7.37;;;;;;;-1.36;100.00;98305.97;5067542;28;20320;-73
2023/01/18 05:15:56;;;;;;;10.87;6.20;;;;;;;-1.39;100.00;98306.03;5062174;28;20203;-73
2023/01/18 05:18:23;;;;;;;11.90;6.83;;;;;;;-1.36;100.00;98310.25;5068077;28;20199;-73
2023/01/18 05:20:49;;;;;;;13.30;6.57;;;;;;;-1.30;100.00;98317.84;5085525;28;20458;-73
2023/01/18 05:23:16;;;;;;;12.17;6.77;;;;;;;-1.29;100.00;98319.53;5067131;28;20221;-73
2023/01/18 05:25:43;;;;;;;14.03;7.67;;;;;;;-1.29;100.00;98319.53;5065933;28;20209;-73
2023/01/18 05:28:11;;;;;;;15.93;7.67;;;;;;;-1.27;100.00;98324.63;5065446;28;20744;-74
2023/01/18 05:30:39;;;;;;;16.13;7.57;;;;;;;-1.26;100.00;98327.16;5065269;28;20215;-73
2023/01/18 05:33:06;;;;;;;12.37;6.57;;;;;;;-1.22;100.00;98333.91;5063837;28;20194;-74
2023/01/18 05:35:32;;;;;;;11.43;6.40;;;;;;;-1.26;100.00;98336.53;5064071;28;21009;-73
2023/01/18 05:37:59;;;;;;;14.77;7.50;;;;;;;-1.26;100.00;98328.88;5072195;28;20690;-72
2023/01/18 05:40:26;;;;;;;15.57;6.80;;;;;;;-1.25;100.00;98341.63;5080686;28;20230;-74
2023/01/18 05:42:53;;;;;;;11.83;6.57;;;;;;;-1.27;100.00;98343.34;5065230;28;20954;-72
2023/01/18 05:45:21;;;;;;;11.50;6.17;;;;;;;-1.26;100.00;98351.88;5062514;28;20195;-73
2023/01/18 05:47:48;;;;;;;12.90;6.83;;;;;;;-1.26;100.00;98350.16;5067126;28;20681;-73
2023/01/18 05:50:14;;;;;;;13.50;6.83;;;;;;;-1.16;100.00;98359.41;5080471;28;20263;-73
2023/01/18 05:52:41;;;;;;;10.27;6.37;;;;;;;-1.19;100.00;98361.16;5066594;28;20207;-73
2023/01/18 05:55:08;;;;;;;13.60;6.97;;;;;;;-1.18;100.00;98365.38;5044425;22;20229;-78
2023/01/18 05:57:34;;;;;;;12.47;6.53;;;;;;;-1.13;100.00;98373.00;4979834;28;20229;-78
2023/01/18 06:00:02;;;;;;;15.67;7.30;;;;;;;-1.17;100.00;98369.63;4982042;28;20609;-78
2023/01/18 06:02:39;;;;;;;15.67;7.87;;;;;;;-1.21;100.00;98362.88;4984415;28;20209;-78
2023/01/18 06:05:06;;;;;;;25.67;11.83;;;;;;;-1.19;100.00;98368.81;4977835;28;20205;-78
2023/01/18 06:07:32;;;;;;;15.67;7.63;;;;;;;-1.17;100.00;98369.63;4999976;22;20374;-71
2023/01/18 06:09:58;;;;;;;11.03;7.07;;;;;;;-1.19;100.00;98373.94;5063709;28;20217;-71
2023/01/18 06:12:25;;;;;;;15.70;7.70;;;;;;;-1.18;100.00;98365.38;5044856;28;20206;-71
2023/01/18 06:14:51;;;;;;;12.53;7.10;;;;;;;-1.14;100.00;98364.50;5064005;28;20203;-71
2023/01/18 06:17:18;;;;;;;12.83;7.33;;;;;;;-1.20;100.00;98364.56;5066805;28;20842;-70
2023/01/18 06:19:46;;;;;;;12.70;6.50;;;;;;;-1.20;100.00;98373.06;5065531;28;20194;-69
2023/01/18 06:22:12;;;;;;;13.40;6.50;;;;;;;-1.17;100.00;98372.19;5066302;28;20211;-70
2023/01/18 06:24:38;;;;;;;13.13;6.37;;;;;;;-1.19;100.00;98379.88;5067793;28;20207;-71
2023/01/18 06:27:05;;;;;;;17.57;6.83;;;;;;;-1.16;100.00;98381.56;5048736;28;20213;-71
2023/01/18 06:29:32;;;;;;;12.30;6.97;;;;;;;-1.19;100.00;98379.88;5066858;28;20227;-71
2023/01/18 06:31:59;;;;;;;14.40;7.37;;;;;;;-1.19;100.00;98386.72;5064280;28;20202;-71
2023/01/18 06:34:25;;;;;;;15.30;7.07;;;;;;;-1.15;100.00;98389.19;5068434;28;20216;-69
2023/01/18 06:36:53;;;;;;;12.37;7.53;;;;;;;-1.12;100.00;98393.44;5066148;28;20195;-70
2023/01/18 06:39:19;;;;;;;13.93;7.50;;;;;;;-1.07;100.00;98389.09;5063551;28;20226;-71
2023/01/18 06:41:46;;;;;;;13.33;7.40;;;;;;;-1.10;100.00;98399.38;5063475;28;20212;-70
2023/01/18 06:44:12;;;;;;;12.57;7.13;;;;;;;-1.08;100.00;98397.63;5065183;28;20202;-71
2023/01/18 06:46:42;;;;;;;13.40;6.70;;;;;;;-1.10;100.00;98398.53;5048320;28;20236;-71
2023/01/18 06:49:09;;;;;;;16.93;7.90;;;;;;;-1.08;100.00;98397.63;5048704;28;20222;-71
2023/01/18 06:51:36;;;;;;;20.23;7.20;;;;;;;-1.08;100.00;98395.06;5066562;28;20589;-71
2023/01/18 06:54:04;;;;;;;15.00;7.73;;;;;;;-1.04;100.00;98394.19;5066884;28;20214;-71
2023/01/18 06:56:31;;;;;;;13.33;7.27;;;;;;;-1.08;100.00;98395.06;5046603;28;21510;-70
2023/01/18 06:58:59;;;;;;;16.37;8.03;;;;;;;-1.11;100.00;98397.66;5059663;28;20622;-71
2023/01/18 07:01:25;;;;;;;21.73;12.57;;;;;;;-1.08;100.00;98407.03;5044020;28;20595;-70
2023/01/18 07:03:52;;;;;;;27.33;13.83;;;;;;;-1.10;100.00;98411.31;5065094;28;20611;-70
2023/01/18 07:06:19;;;;;;;29.73;15.33;;;;;;;-1.09;100.00;98413.88;5068144;28;20190;-71
2023/01/18 07:08:46;;;;;;;28.57;14.07;;;;;;;-1.06;100.00;98416.34;5065460;28;20246;-71
2023/01/18 07:11:14;;;;;;;27.83;14.77;;;;;;;-1.00;100.00;98416.28;5059758;28;20273;-70
2023/01/18 07:13:42;;;;;;;17.63;9.07;;;;;;;-0.97;100.00;98416.25;5059530;28;20205;-71
2023/01/18 07:16:12;;;;;;;15.93;8.10;;;;;;;-0.97;100.00;98418.81;5064057;28;20234;-71
2023/01/18 07:18:42;;;;;;;16.27;8.17;;;;;;;-0.98;100.00;98421.38;5063962;28;20269;-71
2023/01/18 07:21:10;;;;;;;12.90;7.83;;;;;;;-0.94;100.00;98425.56;5048690;28;20223;-71
2023/01/18 07:23:38;;;;;;;17.40;8.30;;;;;;;-0.95;100.00;98434.09;5068521;28;20199;-71
2023/01/18 07:26:06;;;;;;;17.03;8.07;;;;;;;-0.91;100.00;98429.81;5064777;28;20207;-71
2023/01/18 07:28:35;;;;;;;14.43;7.93;;;;;;;-0.89;100.00;98428.06;5068719;28;20600;-71
2023/01/18 07:31:03;;;;;;;14.83;7.07;;;;;;;-0.85;100.00;98435.66;5063597;28;20229;-70
2023/01/18 07:33:30;;;;;;;16.37;8.53;;;;;;;-0.88;100.00;98432.31;5063760;28;20210;-71
2023/01/18 07:35:57;;;;;;;15.23;7.63;;;;;;;-0.87;100.00;98434.00;5051184;28;20209;-71
2023/01/18 07:38:24;;;;;;;13.37;8.10;;;;;;;-0.87;100.00;98436.56;5068805;28;20222;-70
2023/01/18 07:40:51;;;;;;;14.13;8.23;;;;;;;-0.84;100.00;98436.53;5063705;28;20566;-71
2023/01/18 07:43:18;;;;;;;16.87;7.90;;;;;;;-0.85;100.00;98429.72;5050128;28;20223;-71
2023/01/18 07:45:52;;;;;;;15.03;8.17;;;;;;;-0.83;100.00;98441.59;5065299;28;20211;-70
2023/01/18 07:48:19;;;;;;;12.07;7.83;;;;;;;-0.82;100.00;98443.31;5049425;28;20309;-71
2023/01/18 07:50:52;;;;;;;12.03;8.57;;;;;;;-0.79;100.00;98435.59;5069424;28;20696;-71
2023/01/18 07:53:19;;;;;;;18.60;8.20;;;;;;;-0.75;100.00;98440.66;5051080;28;20667;-70
2023/01/18 07:55:45;;;;;;;14.03;8.10;;;;;;;-0.80;100.00;98435.59;5066847;28;20274;-70
2023/01/18 07:58:11;;;;;;;18.70;8.67;;;;;;;-0.80;100.00;98440.72;5069892;28;20332;-71
2023/01/18 08:00:38;;;;;;;15.50;9.00;;;;;;;-0.80;100.00;98443.28;5067453;28;20193;-71
2023/01/18 08:03:06;;;;;;;18.23;8.60;;;;;;;-0.84;100.00;98442.47;5068779;28;20233;-71
2023/01/18 08:05:33;;;;;;;16.23;9.17;;;;;;;-0.84;100.00;98444.22;5066369;28;20206;-71
2023/01/18 08:07:59;;;;;;;24.60;9.27;;;;;;;-0.88;100.00;98445.97;5068138;28;20246;-71
2023/01/18 08:10:26;;;;;;;23.23;10.13;;;;;;;-0.88;100.00;98440.84;5066384;28;20198;-71
2023/01/18 08:12:54;;;;;;;16.47;10.53;;;;;;;-0.87;100.00;98449.38;5068703;28;20195;-71
2023/01/18 08:15:20;;;;;;;17.53;9.90;;;;;;;-0.91;100.00;98452.84;5065395;28;20722;-71
2023/01/18 08:17:49;;;;;;;17.57;8.60;;;;;;;-0.93;100.00;98444.31;5065674;28;20217;-71
2023/01/18 08:20:19;;;;;;;19.03;9.80;;;;;;;-0.94;100.00;98451.16;5053368;28;20198;-71
2023/01/18 08:22:46;;;;;;;16.43;8.90;;;;;;;-0.96;100.00;98446.06;5064018;28;20216;-70
2023/01/18 08:25:12;;;;;;;15.90;9.27;;;;;;;-0.96;100.00;98450.34;5059081;28;20198;-71
2023/01/18 08:27:38;;;;;;;19.10;10.03;;;;;;;-0.96;100.00;98458.00;5051761;28;20267;-71
2023/01/18 08:30:06;;;;;;;19.50;9.53;;;;;;;-0.97;100.00;98462.28;5067336;28;20198;-71
2023/01/18 08:32:33;;;;;;;18.43;9.13;;;;;;;-0.91;100.00;98457.97;5067143;28;20194;-71
2023/01/18 08:35:00;;;;;;;18.80;9.37;;;;;;;-0.92;100.00;98464.75;5067878;28;20195;-70
2023/01/18 08:37:32;;;;;;;20.20;10.07;;;;;;;-0.92;100.00;98461.38;5070466;28;20424;-70
2023/01/18 08:39:58;;;;;;;16.67;9.07;;;;;;;-0.97;100.00;98458.88;5065595;28;20495;-71
2023/01/18 08:42:25;;;;;;;19.57;9.87;;;;;;;-1.04;100.00;98460.69;5069950;28;20218;-71
2023/01/18 08:44:52;;;;;;;20.07;9.10;;;;;;;-1.04;100.00;98460.69;5069348;28;20199;-70
2023/01/18 08:47:19;;;;;;;16.13;9.43;;;;;;;-1.09;100.00;98466.72;5068927;28;20283;-70
2023/01/18 08:49:45;;;;;;;18.60;10.10;;;;;;;-1.07;100.00;98470.97;5048014;28;20206;-71
2023/01/18 08:52:14;;;;;;;15.83;9.53;;;;;;;-1.05;100.00;98474.34;5055480;28;20196;-71
2023/01/18 08:54:42;;;;;;;15.83;9.37;;;;;;;-1.09;100.00;98476.94;5065332;28;20209;-71
2023/01/18 08:57:09;;;;;;;16.87;9.90;;;;;;;-1.10;100.00;98478.66;5050069;28;20228;-70
2023/01/18 08:59:36;;;;;;;24.17;10.80;;;;;;;-1.12;100.00;98477.84;5052231;28;20646;-70
2023/01/18 09:02:02;;;;;;;17.67;10.13;;;;;;;-1.17;100.00;98470.22;5074295;28;20223;-70
2023/01/18 09:04:29;;;;;;;16.93;9.30;;;;;;;-1.10;100.00;98473.53;5071279;28;20465;-70
2023/01/18 09:06:55;;;;;;;15.97;8.90;;;;;;;-1.12;100.00;98482.97;5048661;28;20212;-69
2023/01/18 09:09:21;;;;;;;23.07;12.27;;;;;;;-1.14;100.00;98477.03;5070428;28;20317;-72
2023/01/18 09:11:51;;;;;;;44.07;27.33;;;;;;;-1.11;100.00;98489.75;5056291;28;20203;-70
2023/01/18 09:14:17;;;;;;;37.23;25.70;;;;;;;-1.11;100.00;98484.63;5071857;28;20199;-71
2023/01/18 09:16:44;;;;;;;55.50;34.00;;;;;;;-1.08;100.00;98488.88;5071981;28;20199;-72
2023/01/18 09:19:11;;;;;;;32.43;21.77;;;;;;;-1.08;100.00;98488.88;5072803;28;20319;-71
2023/01/18 09:21:38;;;;;;;82.87;49.67;;;;;;;-1.10;100.00;98495.72;5053242;28;20659;-72
2023/01/18 09:24:05;;;;;;;45.93;25.83;;;;;;;-1.06;100.00;98489.69;5069003;28;20686;-70
2023/01/18 09:26:32;;;;;;;59.27;26.70;;;;;;;-1.04;100.00;98493.06;5060795;28;20213;-71
2023/01/18 09:28:59;;;;;;;154.93;42.57;;;;;;;-1.08;100.00;98499.09;5053568;28;20237;-72
2023/01/18 09:31:27;;;;;;;69.33;21.80;;;;;;;-1.09;100.00;98494.84;5055837;28;20246;-71
2023/01/18 09:33:55;;;;;;;77.17;24.43;;;;;;;-1.07;100.00;98496.53;5066626;28;20194;-72
2023/01/18 09:36:25;;;;;;;38.47;14.97;;;;;;;-1.04;100.00;98498.19;5065179;28;20290;-72
2023/01/18 09:38:52;;;;;;;28.00;10.80;;;;;;;-0.97;100.00;98502.34;5073557;28;20468;-72
2023/01/18 09:41:29;;;;;;;20.70;10.63;;;;;;;-0.95;100.00;98508.28;5070119;28;20214;-71
2023/01/18 09:43:59;;;;;;;16.13;8.50;;;;;;;-0.96;100.00;98509.19;5069166;28;20449;-72
2023/01/18 09:46:27;;;;;;;68.90;27.50;;;;;;;-0.92;100.00;98509.97;5067528;28;20195;-72
2023/01/18 09:48:57;;;;;;;18.40;10.70;;;;;;;-0.96;100.00;98502.34;5068689;28;20226;-72
2023/01/18 09:51:29;;;;;;;29.00;16.63;;;;;;;-0.91;100.00;98502.28;5071205;28;20203;-72
2023/01/18 09:54:07;;;;;;;107.40;67.63;;;;;;;-0.90;100.00;98505.69;5057729;28;20199;-71
2023/01/18 09:56:43;;;;;;;25.53;15.37;;;;;;;-0.89;100.00;98503.09;5050323;28;20210;-72
2023/01/18 09:59:20;;;;;;;30.13;15.30;;;;;;;-0.94;100.00;98507.44;5067127;28;20606;-72
2023/01/18 10:01:50;;;;;;;62.50;18.67;;;;;;;-0.90;100.00;98498.84;5064648;28;20310;-70
2023/01/18 10:04:21;;;;;;;69.07;27.73;;;;;;;-0.88;100.00;98497.13;5064540;28;20749;-72
2023/01/18 10:06:50;;;;;;;79.53;39.43;;;;;;;-0.83;100.00;98497.06;5062531;28;20404;-70
2023/01/18 10:09:20;;;;;;;26.77;14.33;;;;;;;-0.80;100.00;98494.47;5063956;28;20216;-72
2023/01/18 10:11:54;;;;;;;15.70;9.57;;;;;;;-0.78;100.00;98502.97;5043612;28;20203;-72
2023/01/18 10:14:37;;;;;;;33.00;17.87;;;;;;;-0.70;100.00;98503.69;5068465;28;20273;-72
2023/01/18 10:17:11;;;;;;;52.00;26.80;;;;;;;-0.62;100.00;98491.63;5060501;28;20291;-69
2023/01/18 10:19:39;;;;;;;48.17;25.20;;;;;;;-0.58;100.00;98506.09;5066111;28;20308;-72
2023/01/18 10:22:08;;;;;;;35.07;20.23;;;;;;;-0.59;100.00;98501.81;5046654;28;20306;-72
2023/01/18 10:24:46;;;;;;;20.47;10.90;;;;;;;-0.49;100.00;98499.97;5060694;28;20213;-71
2023/01/18 10:27:38;;;;;;;39.73;23.10;;;;;;;-0.47;100.00;98503.34;5062601;28;20206;-72
2023/01/18 10:30:24;;;;;;;37.63;19.83;;;;;;;-0.50;100.00;98510.25;5060095;28;20274;-71
2023/01/18 10:32:56;;;;;;;27.00;13.63;;;;;;;-0.50;100.00;98508.50;5064622;28;20218;-72
2023/01/18 10:35:29;;;;;;;89.10;35.87;;;;;;;-0.58;100.00;98511.19;5062841;28;20335;-72
2023/01/18 10:37:58;;;;;;;117.33;48.07;;;;;;;-0.60;100.00;98504.41;5038546;28;20238;-70
2023/01/18 10:40:24;;;;;;;52.00;27.40;;;;;;;-0.60;100.00;98505.25;5053985;28;20191;-71
2023/01/18 10:42:53;;;;;;;35.20;19.37;;;;;;;-0.61;100.00;98506.13;5044412;28;20222;-71
2023/01/18 10:45:22;;;;;;;33.33;19.47;;;;;;;-0.53;100.00;98502.59;5041315;28;20206;-72
2023/01/18 10:47:50;;;;;;;33.83;20.73;;;;;;;-0.58;100.00;98500.97;5046187;28;20222;-72
2023/01/18 10:50:21;;;;;;;21.77;9.77;;;;;;;-0.58;100.00;98503.53;5063455;28;20222;-70
2023/01/18 10:52:48;;;;;;;17.30;9.80;;;;;;;-0.60;100.00;98504.41;5050895;28;20209;-71
2023/01/18 10:55:16;;;;;;;19.40;11.87;;;;;;;-0.59;100.00;98506.94;5067540;28;20671;-72
2023/01/18 10:57:46;;;;;;;14.30;8.90;;;;;;;-0.53;100.00;98507.72;5063903;28;20224;-70
2023/01/18 11:00:22;;;;;;;35.23;14.20;;;;;;;-0.63;100.00;98507.03;5051772;28;20221;-72
2023/01/18 11:02:52;;;;;;;37.57;15.10;;;;;;;-0.70;100.00;98503.69;5065386;28;20320;-72
2023/01/18 11:05:28;;;;;;;25.43;12.10;;;;;;;-0.71;100.00;98503.72;5066803;28;20191;-72
2023/01/18 11:08:12;;;;;;;18.33;9.50;;;;;;;-0.74;100.00;98504.59;5046220;28;20227;-72
2023/01/18 11:10:40;;;;;;;25.43;12.10;;;;;;;-0.78;100.00;98500.41;5063444;28;20209;-72
2023/01/18 11:13:23;;;;;;;42.17;18.57;;;;;;;-0.78;100.00;98503.78;5059859;28;20195;-70
2023/01/18 11:16:02;;;;;;;18.27;10.30;;;;;;;-0.73;100.00;98503.75;5059261;28;20212;-71
2023/01/18 11:18:31;;;;;;;12.23;7.50;;;;;;;-0.68;100.00;98507.09;5046308;28;20210;-71
2023/01/18 11:20:59;;;;;;;15.07;8.73;;;;;;;-0.61;100.00;98507.84;5062634;28;20214;-72
2023/01/18 11:23:31;;;;;;;13.50;8.97;;;;;;;-0.60;100.00;98505.25;5063686;28;20217;-72
2023/01/18 11:26:00;;;;;;;14.97;8.67;;;;;;;-0.62;100.00;98511.25;5046858;28;20199;-72
2023/01/18 11:28:34;;;;;;;32.23;16.40;;;;;;;-0.63;100.00;98517.25;5060468;28;20218;-72
2023/01/18 11:31:08;;;;;;;23.87;13.83;;;;;;;-0.64;100.00;98516.41;5049920;28;20217;-72
2023/01/18 11:33:39;;;;;;;19.37;12.83;;;;;;;-0.59;100.00;98518.91;5046408;28;20500;-72
2023/01/18 11:36:07;;;;;;;16.63;11.77;;;;;;;-0.62;100.00;98517.22;5048867;28;20723;-72
2023/01/18 11:38:34;;;;;;;22.77;13.60;;;;;;;-0.60;100.00;98512.06;5063703;28;20219;-70
2023/01/18 11:41:07;;;;;;;18.50;11.47;;;;;;;-0.54;100.00;98512.00;5063745;28;20206;-70
2023/01/18 11:43:38;;;;;;;16.50;9.60;;;;;;;-0.52;100.00;98512.81;5063218;28;20222;-72
2023/01/18 11:46:17;;;;;;;24.77;16.27;;;;;;;-0.51;100.00;98524.75;5043212;28;20237;-71
2023/01/18 11:48:49;;;;;;;27.27;18.93;;;;;;;-0.50;100.00;98523.88;5060944;28;20566;-72
2023/01/18 11:51:23;;;;;;;22.43;14.50;;;;;;;-0.48;100.00;98521.28;5044529;28;20214;-71
2023/01/18 11:53:57;;;;;;;19.67;12.00;;;;;;;-0.45;100.00;98524.66;5062665;28;20214;-72
2023/01/18 11:56:32;;;;;;;14.47;9.00;;;;;;;-0.46;100.00;98517.00;5060425;28;20737;-70
2023/01/18 11:58:59;;;;;;;19.43;10.00;;;;;;;-0.49;100.00;98517.91;5064922;28;20578;-72